• Join FlightAware (Why Join?)
  • Login
  • US Flag 
01:02AM EDT


 

Airport Tracker/Info


-or-


 

Live Flight TrackerFlight Track Log ✈ DAL8943 ✈ 12-Mar-2014 ✈ KBOS - KHPN

Flight Track Log - Related Links

Times and Time Zones

All times are in EDT time to prevent confusion due to time zone crossing. See the DAL8943 flight status page for this flight to view local times or setup timezone preferences in your user account.

Time Position Orientation Groundspeed Altitude Reporting Facility
EDT Latitude Longitude Course Direction KTS MPH feet Rate Location/Type
11:36PM 42.3500 -71.0167 236° Southwest 149 171 700  Level KA90
11:37PM 42.3167 -71.0833 236° Southwest 239 275 3,800 3,000 Climbing KA90
11:38PM 42.2711 -71.1378 221° Southwest 248 285 6,700 3,780 Climbing Boston Center
11:39PM 42.2456 -71.2256 249° West 250 288 10,600 2,760 Climbing Boston Center
11:40PM 42.2133 -71.3250 246° West 294 338 12,300 2,160 Climbing Boston Center
11:41PM 42.1878 -71.4497 255° West 344 396 15,000 3,480 Climbing Boston Center
11:42PM 42.1672 -71.5611 256° West 340 391 19,400 2,460 Climbing Boston Center
11:43PM 42.1444 -71.6886 256° West 353 406 20,000 240 Climbing Boston Center
11:44PM 42.1142 -71.8342 254° West 400 460 20,000  Level Boston Center
11:45PM 42.0886 -71.9669 256° West 370 426 20,000  Level Boston Center
11:46PM 42.0631 -72.0933 255° West 354 407 20,000  Level Boston Center
11:47PM 42.0369 -72.2214 255° West 355 409 20,000 -420 Level Boston Center
11:48PM 42.0125 -72.3442 255° West 344 396 19,200 -1,260 Descending Boston Center
11:49PM 41.9817 -72.4908 254° West 350 403 17,500 -1,260 Descending Boston Center
11:50PM 41.9572 -72.6122 255° West 338 389 16,700 -720 Descending Boston Center
11:51PM 41.9339 -72.7122 253° West 334 384 16,100 -360 Descending Boston Center
11:52PM 41.8825 -72.8306 240° Southwest 317 365 16,000 -60 Descending Boston Center
11:53PM 41.8400 -72.9319 241° Southwest 314 361 16,000  Level Boston Center
11:54PM 41.7978 -73.0336 241° Southwest 313 360 16,000  Level Boston Center
11:55PM 41.7561 -73.1328 241° Southwest 309 356 16,000 -60 Level Boston Center
11:56PM 41.7153 -73.2308 241° Southwest 305 351 15,900 -360 Descending Boston Center
11:57PM 41.6736 -73.3278 240° Southwest 302 348 15,300 -840 Descending Boston Center
11:58PM 41.6292 -73.4322 240° Southwest 307 353 14,300 -1,560 Descending Boston Center
11:59PM 41.5886 -73.5261 240° Southwest 294 338 12,200 -1,980 Descending Boston Center
12:00AM 41.5503 -73.6139 240° Southwest 277 319 10,400 -2,040 Descending Boston Center
12:01AM 41.5172 -73.6931 241° Southwest 247 284 8,100 -2,040 Descending Boston Center
12:02AM 41.4806 -73.7769 240° Southwest 259 298 6,400 -1,200 Descending Boston Center
12:03AM 41.4500 -73.8333 234° Southwest 252 290 6,000 -1,020 Descending New York TRACON
12:04AM 41.3833 -73.8500 191° South 284 327 4,500 -1,440 Descending New York TRACON
12:05AM 41.3167 -73.7833 143° Southeast 292 336 3,000 -720 Descending New York TRACON
12:06AM 41.2500 -73.7167 143° Southeast 293 337 3,000  Level New York TRACON
12:07AM 41.1833 -73.6500 143° Southeast 292 336 3,000 -120 Level New York TRACON
12:08AM 41.1167 -73.5833 143° Southeast 287 330 2,800 -480 Descending New York TRACON
12:09AM 41.0500 -73.5333 151° Southeast 237 273 2,100 -420 Descending New York TRACON
12:10AM 41.0000 -73.5000 153° Southeast 219 252 2,000 -60 Descending New York TRACON
12:11AM 40.9500 -73.5167 194° South 198 228 2,000  Level New York TRACON
12:12AM 40.9333 -73.5667 246° West 175 201 2,000  Level New York TRACON
12:13AM 40.9667 -73.6167 311° West 152 175 2,000 -120 Level New York TRACON
12:14AM 41.0000 -73.6500 323° Northwest 143 165 1,800 -420 Descending New York TRACON
12:15AM 41.0333 -73.6833 323° Northwest 114 131 1,200 -600 Descending New York TRACON
12:17AM 41.0667 -73.7000 252° West  Level FlightAware Approximate
12:24AM 41.0669 -73.7076 252° West  Level Estimated